Current | Forecast
Updated: 12:30 AM EET on November 22, 2017
Observed at Dnipropetrovs'k, Ukraine
Temperature 0°C
Windchill -6°C
Humidity 80%
Dew Point -3°C
Wind NW at 25 km/h
Pressure 1009 hPa (Rising)
Conditions Mostly Cloudy
Visibility 10.0 kilometers
UV 0 out of 16
Clouds Mostly Cloudy (BKN) : 548 m
Yesterday's Maximum 2°C
Yesterday's Minimum 0°C approx.
Yesterday's Heating Degree Days 31 approx.
Sunrise6:59 AM EET
Sunset3:55 PM EET
Moon Rise10:05 AM EET
Moon Set7:08 PM EET
Moon PhaseMoon Phase
Waxing Crescent
Raw METARMETAR UKDD 212230Z 32007MPS 9999 BKN018 00/M03 Q1009 R26/090070 NOSIG


Monday
. High: 62° F.
Tuesday
. High: 62° F.
Wednesday
. High: 64° F.
Thursday
. High: 64° F.
Friday
. High: 64° F.
Saturday
. High: 55° F.
Sunday
. High: 62° F.
Monday
. High: 64° F.

Units: English | Metric

Find the Weather for any City, State or Zipcode, or Country:

U.S. State List | Severe Weather | Tropical Storms | Ski Conditions
United States | Canada | Central America | South America | Asia | Europe | Australia | Africa | Islands

Weather Underground

© Copyright 2017
The Weather Company, LLC